Time;durP1;ratioP1;P1;durP2;ratioP2;P2;SDS_P1;SDS_P2;PMS_P1;PMS_P2;Temp;Humidity;BMP_temperature;BMP_pressure;BME280_temperature;BME280_humidity;BME280_pressure;Samples;Min_cycle;Max_cycle;Signal;HPM_P1;HPM_P2
2023/01/13 00:00:18;;;;;;;;;;;;;;;25.16;21.31;97962.09;4986168;28;20024;-91
2023/01/13 00:02:44;;;;;;;;;;;;;;;25.49;20.66;97961.97;4989091;28;20005;-91
2023/01/13 00:05:10;;;;;;;;;;;;;;;25.52;20.59;97961.91;4984422;28;20037;-91
2023/01/13 00:07:38;;;;;;;;;;;;;;;25.40;20.43;97948.56;4984325;28;19930;-91
2023/01/13 00:10:06;;;;;;;;;;;;;;;25.40;20.83;97948.56;4986294;28;20400;-91
2023/01/13 00:12:32;;;;;;;;;;;;;;;25.56;20.67;97950.53;4992261;28;19928;-91
2023/01/13 00:14:58;;;;;;;;;;;;;;;25.53;20.43;97951.44;4987026;28;20279;-91
2023/01/13 00:17:24;;;;;;;;;;;;;;;25.40;20.97;97949.38;4992012;28;19925;-90
2023/01/13 00:19:50;;;;;;;;;;;;;;;25.33;20.78;97951.59;4991883;28;19921;-91
2023/01/13 00:22:16;;;;;;;;;;;;;;;25.27;21.01;97956.19;4994250;28;19976;-90
2023/01/13 00:24:42;;;;;;;;;;;;;;;25.25;20.94;97953.81;4996619;28;20025;-90
2023/01/13 00:27:08;;;;;;;;;;;;;;;25.07;20.88;97955.53;4995468;28;20005;-91
2023/01/13 00:29:35;;;;;;;;;;;;;;;24.86;21.03;97959.72;4995649;28;19922;-91
2023/01/13 00:32:01;;;;;;;;;;;;;;;24.77;21.49;97956.75;4989178;28;19957;-90
2023/01/13 00:34:27;;;;;;;;;;;;;;;24.98;20.94;97950.56;4991932;28;19929;-91
2023/01/13 00:36:53;;;;;;;;;;;;;;;24.97;21.13;97951.03;4988678;28;19922;-91
2023/01/13 00:39:19;;;;;;;;;;;;;;;25.07;20.98;97947.09;4989890;28;19918;-90
2023/01/13 00:44:29;;;;;;;;;;;;;;;25.06;21.28;97945.56;4989365;28;19928;-90
2023/01/13 00:46:55;;;;;;;;;;;;;;;24.91;21.27;97952.78;4990258;28;19921;-90
2023/01/13 00:49:21;;;;;;;;;;;;;;;24.96;21.39;97953.03;4984382;28;19918;-91
2023/01/13 00:51:47;;;;;;;;;;;;;;;25.21;21.14;97955.13;4983215;28;19964;-90
2023/01/13 00:54:13;;;;;;;;;;;;;;;25.01;21.12;97957.31;4992522;28;19928;-91
2023/01/13 00:56:39;;;;;;;;;;;;;;;24.85;21.48;97955.34;4986340;28;19917;-91
2023/01/13 00:59:06;;;;;;;;;;;;;;;25.28;21.19;97949.31;4988269;28;19922;-90
2023/01/13 01:01:32;;;;;;;;;;;;;;;25.13;21.10;97943.34;4986248;28;19921;-91
2023/01/13 01:03:58;;;;;;;;;;;;;;;25.21;21.69;97944.69;4988098;28;19966;-91
2023/01/13 01:06:25;;;;;;;;;;;;;;;25.30;20.78;97941.22;4993666;28;20014;-91
2023/01/13 01:08:51;;;;;;;;;;;;;;;25.32;21.28;97939.53;4987186;28;19924;-91
2023/01/13 01:11:19;;;;;;;;;;;;;;;25.23;20.95;97935.81;4982644;28;19922;-91
2023/01/13 01:13:46;;;;;;;;;;;;;;;24.48;21.73;97941.88;4987563;28;19933;-91
2023/01/13 01:16:13;;;;;;;;;;;;;;;24.59;21.79;97936.75;4976455;28;19929;-91
2023/01/13 01:18:41;;;;;;;;;;;;;;;24.65;21.43;97932.19;4991929;28;19922;-91
2023/01/13 01:21:07;;;;;;;;;;;;;;;24.26;22.64;97936.00;4980748;28;19926;-91
2023/01/13 01:23:34;;;;;;;;;;;;;;;24.34;22.01;97928.19;4983860;28;19948;-90
2023/01/13 01:26:01;;;;;;;;;;;;;;;24.60;21.81;97919.47;4977762;28;19925;-90
2023/01/13 01:28:27;;;;;;;;;;;;;;;25.04;21.37;97915.06;4981689;28;19922;-91
2023/01/13 01:30:54;;;;;;;;;;;;;;;25.14;21.17;97922.41;4993204;28;19971;-91
2023/01/13 01:33:20;;;;;;;;;;;;;;;25.07;21.28;97908.56;4986395;28;19929;-91
2023/01/13 01:35:46;;;;;;;;;;;;;;;24.98;21.25;97916.06;4979746;28;19926;-90
2023/01/13 01:38:12;;;;;;;;;;;;;;;25.24;21.30;97912.91;4985821;28;19929;-91
2023/01/13 01:40:38;;;;;;;;;;;;;;;25.28;21.15;97910.75;4983449;28;20838;-91
2023/01/13 01:45:57;;;;;;;;;;;;;;;25.84;21.04;97908.25;4987372;28;20463;-91
2023/01/13 01:48:24;;;;;;;;;;;;;;;25.93;21.05;97908.38;4990225;28;19963;-91
2023/01/13 01:50:51;;;;;;;;;;;;;;;25.85;20.95;97901.41;4989120;28;20389;-91
2023/01/13 01:53:19;;;;;;;;;;;;;;;25.34;21.13;97905.41;4989058;28;19922;-91
2023/01/13 01:55:45;;;;;;;;;;;;;;;25.60;21.24;97895.00;4981175;28;20332;-91
2023/01/13 01:58:23;;;;;;;;;;;;;;;25.63;21.17;97885.66;4988122;28;20375;-91
2023/01/13 02:00:49;;;;;;;;;;;;;;;25.48;21.52;97890.94;4986839;28;19922;-91
2023/01/13 02:03:16;;;;;;;;;;;;;;;25.69;21.54;97897.94;4985499;28;20405;-92
2023/01/13 02:05:42;;;;;;;;;;;;;;;26.07;21.21;97899.47;4970023;28;19926;-90
2023/01/13 02:08:10;;;;;;;;;;;;;;;26.30;20.94;97891.94;4985551;28;19922;-90
2023/01/13 02:10:36;;;;;;;;;;;;;;;26.11;20.94;97888.16;4984506;28;20378;-90
2023/01/13 02:13:05;;;;;;;;;;;;;;;26.21;20.74;97886.22;4984718;28;19968;-91
2023/01/13 02:15:46;;;;;;;;;;;;;;;26.30;20.63;97878.63;4987306;28;19930;-91
2023/01/13 02:18:15;;;;;;;;;;;;;;;26.13;20.19;97877.22;4987765;28;20441;-90
2023/01/13 02:21:00;;;;;;;;;;;;;;;25.80;20.80;97870.25;4977335;28;19969;-91
2023/01/13 02:26:31;;;;;;;;;;;;;;;26.01;20.70;97861.09;4989149;28;19929;-90
2023/01/13 02:31:50;;;;;;;;;;;;;;;25.26;21.29;97870.28;4989732;28;19925;-90
2023/01/13 02:34:22;;;;;;;;;;;;;;;25.17;21.20;97870.97;4987670;28;19937;-90
2023/01/13 02:36:57;;;;;;;;;;;;;;;25.22;21.38;97867.59;4986144;28;19922;-91
2023/01/13 02:39:33;;;;;;;;;;;;;;;25.24;21.39;97870.75;4991803;28;19925;-91
2023/01/13 02:45:07;;;;;;;;;;;;;;;25.45;21.40;97860.13;4991121;28;20012;-90
2023/01/13 02:47:36;;;;;;;;;;;;;;;25.58;21.72;97860.94;4982765;28;20310;-91
2023/01/13 02:50:05;;;;;;;;;;;;;;;25.55;20.98;97862.59;4985487;28;19921;-90
2023/01/13 02:52:36;;;;;;;;;;;;;;;25.56;21.25;97855.72;4985045;28;19922;-90
2023/01/13 02:55:05;;;;;;;;;;;;;;;25.68;21.29;97859.78;4989172;28;19944;-90
2023/01/13 02:57:33;;;;;;;;;;;;;;;25.76;21.32;97858.31;4983368;28;19985;-90
2023/01/13 03:00:00;;;;;;;;;;;;;;;25.68;20.98;97860.56;4977278;28;20282;-91
2023/01/13 03:02:26;;;;;;;;;;;;;;;25.69;21.25;97864.19;4984372;28;19922;-90
2023/01/13 03:04:56;;;;;;;;;;;;;;;25.50;20.90;97857.53;4984818;28;19925;-91
2023/01/13 03:07:32;;;;;;;;;;;;;;;25.42;21.07;97848.50;4979559;28;19922;-90
2023/01/13 03:10:13;;;;;;;;;;;;;;;25.56;21.23;97852.91;4970495;28;19940;-90
2023/01/13 03:13:12;;;;;;;;;;;;;;;25.79;20.80;97857.44;4981627;28;19973;-90
2023/01/13 03:15:53;;;;;;;;;;;;;;;26.06;20.79;97852.91;4964851;28;19980;-90
2023/01/13 03:18:22;;;;;;;;;;;;;;;26.24;20.40;97845.88;4990406;28;20421;-90
2023/01/13 03:20:53;;;;;;;;;;;;;;;26.26;20.18;97847.00;4977768;28;19922;-92
2023/01/13 03:23:31;;;;;;;;;;;;;;;26.11;20.39;97848.75;4981986;28;19954;-91
2023/01/13 03:26:08;;;;;;;;;;;;;;;26.14;20.12;97847.81;4980496;28;20010;-91
2023/01/13 03:28:44;;;;;;;;;;;;;;;25.71;20.68;97842.81;4984456;28;19922;-90
2023/01/13 03:31:13;;;;;;;;;;;;;;;25.59;21.03;97842.81;4983689;28;19926;-91
2023/01/13 03:33:44;;;;;;;;;;;;;;;25.34;21.02;97838.69;4980541;28;19950;-90
2023/01/13 03:36:13;;;;;;;;;;;;;;;25.09;21.10;97835.06;4970185;28;20450;-91
2023/01/13 03:38:53;;;;;;;;;;;;;;;24.97;21.80;97839.44;4978780;28;20383;-91
2023/01/13 03:41:27;;;;;;;;;;;;;;;24.53;22.28;97829.03;4981966;28;19948;-91
2023/01/13 03:46:48;;;;;;;;;;;;;;;24.59;22.14;97827.28;4983090;28;20069;-91
2023/01/13 03:49:18;;;;;;;;;;;;;;;24.25;22.78;97838.25;4981164;28;19969;-90
2023/01/13 03:51:46;;;;;;;;;;;;;;;23.53;23.65;97832.78;4980383;28;20298;-91
2023/01/13 03:54:14;;;;;;;;;;;;;;;24.22;23.02;97836.31;4981418;28;20397;-91
2023/01/13 03:56:45;;;;;;;;;;;;;;;24.40;22.83;97825.41;4981745;28;20328;-90
2023/01/13 03:59:14;;;;;;;;;;;;;;;24.28;22.86;97831.75;4979498;28;19922;-91
2023/01/13 04:02:02;;;;;;;;;;;;;;;24.46;22.72;97832.03;4985117;28;19973;-90
2023/01/13 04:04:34;;;;;;;;;;;;;;;24.58;22.85;97834.13;4981675;28;19929;-90
2023/01/13 04:07:08;;;;;;;;;;;;;;;24.83;22.82;97820.22;4979427;28;19929;-90
2023/01/13 04:09:48;;;;;;;;;;;;;;;24.86;22.36;97819.31;4981790;28;19926;-90
2023/01/13 04:12:27;;;;;;;;;;;;;;;25.16;22.38;97812.38;4977968;28;20390;-91
2023/01/13 04:14:54;;;;;;;;;;;;;;;25.14;22.45;97815.66;4978088;28;19933;-90
2023/01/13 04:17:23;;;;;;;;;;;;;;;25.19;22.15;97817.13;4980149;28;21370;-91
2023/01/13 04:19:49;;;;;;;;;;;;;;;25.19;22.41;97817.13;4983546;28;19968;-90
2023/01/13 04:22:15;;;;;;;;;;;;;;;25.42;21.84;97826.03;4979766;28;23093;-90
2023/01/13 04:24:41;;;;;;;;;;;;;;;25.85;21.94;97830.31;4984942;28;20016;-90
2023/01/13 04:27:07;;;;;;;;;;;;;;;25.89;21.60;97833.78;4976335;28;19936;-91
2023/01/13 04:29:33;;;;;;;;;;;;;;;26.05;21.37;97831.63;4989363;28;20374;-91
2023/01/13 04:31:59;;;;;;;;;;;;;;;25.95;21.47;97827.13;4993163;28;19917;-91
2023/01/13 04:34:25;;;;;;;;;;;;;;;25.27;22.44;97821.28;4991163;28;19921;-90
2023/01/13 04:36:51;;;;;;;;;;;;;;;25.27;22.36;97824.91;4991834;28;19977;-90
2023/01/13 04:39:17;;;;;;;;;;;;;;;24.83;22.93;97831.44;4988865;28;19917;-91
2023/01/13 04:42:00;;;;;;;;;;;;;;;24.42;23.03;97831.34;4982096;28;20282;-91
2023/01/13 04:44:26;;;;;;;;;;;;;;;24.11;23.65;97833.78;4984967;28;19924;-91
2023/01/13 04:46:52;;;;;;;;;;;;;;;24.68;22.89;97828.22;4988326;28;20383;-90
2023/01/13 04:49:18;;;;;;;;;;;;;;;24.80;22.86;97826.72;4988192;28;20369;-90
2023/01/13 04:51:44;;;;;;;;;;;;;;;25.30;22.40;97829.59;4986384;28;19992;-90
2023/01/13 04:54:10;;;;;;;;;;;;;;;25.51;22.04;97827.41;4972576;28;20341;-90
2023/01/13 04:56:36;;;;;;;;;;;;;;;25.47;22.18;97829.53;4968308;28;19953;-90
2023/01/13 04:59:02;;;;;;;;;;;;;;;25.72;21.88;97826.72;4987799;28;19921;-90
2023/01/13 05:01:28;;;;;;;;;;;;;;;25.90;21.69;97838.97;4994120;28;19925;-91
2023/01/13 05:03:54;;;;;;;;;;;;;;;26.11;21.55;97840.31;4979891;28;20013;-91
2023/01/13 05:06:20;;;;;;;;;;;;;;;26.33;21.12;97840.34;4984007;28;20326;-91
2023/01/13 05:08:46;;;;;;;;;;;;;;;26.52;21.24;97830.81;4987235;28;19918;-91
2023/01/13 05:17:00;;;;;;;;;;;;;;;26.30;21.47;97844.84;4983209;28;19965;-92
2023/01/13 05:19:27;;;;;;;;;;;;;;;26.29;21.40;97848.13;4982114;28;19922;-92
2023/01/13 05:27:23;;;;;;;;;;;;;;;26.40;20.69;97837.28;4982830;28;20289;-89
2023/01/13 05:29:49;;;;;;;;;;;;;;;26.04;21.35;97832.06;4983297;28;19936;-90
2023/01/13 05:32:15;;;;;;;;;;;;;;;26.17;21.63;97835.66;4988153;28;19921;-89
2023/01/13 05:34:41;;;;;;;;;;;;;;;26.28;21.30;97836.09;4972981;28;19933;-92
2023/01/13 05:37:09;;;;;;;;;;;;;;;26.25;21.56;97839.03;4985869;28;19932;-91
2023/01/13 05:45:05;;;;;;;;;;;;;;;26.11;21.54;97839.50;4986560;28;19932;-88
2023/01/13 05:47:31;;;;;;;;;;;;;;;26.05;21.29;97833.63;4981464;28;20405;-92
2023/01/13 05:49:57;;;;;;;;;;;;;;;25.65;21.77;97850.22;4993152;28;19925;-90
2023/01/13 05:52:23;;;;;;;;;;;;;;;25.56;21.86;97841.69;4981662;28;19922;-88
2023/01/13 05:54:49;;;;;;;;;;;;;;;25.19;22.65;97848.81;4981188;28;19922;-92
2023/01/13 05:57:16;;;;;;;;;;;;;;;25.60;22.28;97844.38;4980697;28;20004;-92
2023/01/13 05:59:42;;;;;;;;;;;;;;;25.46;21.95;97836.41;4986709;28;19918;-88
2023/01/13 06:02:08;;;;;;;;;;;;;;;25.83;21.93;97832.78;4987046;28;19922;-87
2023/01/13 06:04:34;;;;;;;;;;;;;;;25.79;21.63;97843.38;4975940;28;19919;-86
2023/01/13 06:07:00;;;;;;;;;;;;;;;26.10;21.74;97838.72;4977585;28;19922;-87
2023/01/13 06:09:26;;;;;;;;;;;;;;;25.62;22.26;97845.50;4995456;28;19925;-87
2023/01/13 06:11:52;;;;;;;;;;;;;;;25.71;22.03;97845.63;4977127;28;20378;-87
2023/01/13 06:14:18;;;;;;;;;;;;;;;25.50;22.38;97851.13;4983910;28;19922;-86
2023/01/13 06:16:47;;;;;;;;;;;;;;;25.75;22.59;97837.84;4976651;28;19918;-87
2023/01/13 06:19:13;;;;;;;;;;;;;;;26.20;21.89;97843.22;4994549;28;20369;-87
2023/01/13 06:21:39;;;;;;;;;;;;;;;26.36;21.54;97836.63;4995217;28;20297;-87
2023/01/13 06:24:06;;;;;;;;;;;;;;;26.62;21.67;97849.38;4995312;28;19961;-87
2023/01/13 06:26:37;;;;;;;;;;;;;;;26.93;21.28;97849.50;4995183;28;19926;-87
2023/01/13 06:29:03;;;;;;;;;;;;;;;26.95;20.86;97849.81;4995204;28;19988;-87
2023/01/13 06:31:30;;;;;;;;;;;;;;;27.02;20.55;97855.19;4963532;28;19918;-87
2023/01/13 06:33:58;;;;;;;;;;;;;;;26.96;20.64;97854.19;4974465;28;19918;-87
2023/01/13 06:36:28;;;;;;;;;;;;;;;26.99;20.70;97853.28;4982946;28;19991;-87
2023/01/13 06:38:57;;;;;;;;;;;;;;;27.06;20.83;97850.19;4995093;28;19925;-87
2023/01/13 06:43:13;;;;;;;;;;;;;;;27.15;20.73;97841.78;4994726;28;19918;-87
2023/01/13 06:44:09;;;;;;;;;;;;;;;27.00;20.78;97854.84;4982407;28;19976;-86
2023/01/13 06:46:35;;;;;;;;;;;;;;;26.87;20.62;97854.13;4975175;28;20378;-87
2023/01/13 06:49:01;;;;;;;;;;;;;;;26.49;21.15;97860.69;4991227;28;19917;-86
2023/01/13 06:51:27;;;;;;;;;;;;;;;26.33;21.79;97858.03;4994858;28;19920;-87
2023/01/13 06:53:53;;;;;;;;;;;;;;;26.14;21.86;97850.63;4994741;28;19918;-87
2023/01/13 06:56:19;;;;;;;;;;;;;;;26.25;21.61;97853.91;4994656;28;19921;-86
2023/01/13 06:58:45;;;;;;;;;;;;;;;26.28;22.05;97858.59;4976896;28;19928;-86
2023/01/13 07:01:11;;;;;;;;;;;;;;;26.39;21.40;97859.03;4994426;28;19918;-87
2023/01/13 07:03:37;;;;;;;;;;;;;;;26.48;21.83;97856.31;4994561;28;19921;-87
2023/01/13 07:06:03;;;;;;;;;;;;;;;26.61;21.23;97857.03;4977329;28;19926;-86
2023/01/13 07:08:29;;;;;;;;;;;;;;;26.88;21.21;97862.13;4975509;28;19997;-86
2023/01/13 07:10:55;;;;;;;;;;;;;;;27.02;20.83;97863.63;4989323;28;19969;-87
2023/01/13 07:16:06;;;;;;;;;;;;;;;27.44;20.81;97858.44;4993868;28;19975;-87
2023/01/13 07:18:33;;;;;;;;;;;;;;;27.42;20.82;97858.13;4994260;28;19918;-87
2023/01/13 07:21:00;;;;;;;;;;;;;;;27.52;20.71;97854.88;4993275;28;20000;-87
2023/01/13 07:23:27;;;;;;;;;;;;;;;27.62;20.41;97850.84;4993663;28;20004;-87
2023/01/13 07:25:57;;;;;;;;;;;;;;;27.53;20.78;97850.81;4994496;28;20016;-87
2023/01/13 07:28:24;;;;;;;;;;;;;;;27.46;21.01;97861.56;4994172;28;19925;-87
2023/01/13 07:30:50;;;;;;;;;;;;;;;27.26;20.49;97853.44;4994157;28;19918;-87
2023/01/13 07:33:19;;;;;;;;;;;;;;;27.31;20.70;97856.47;4994480;28;19925;-87
2023/01/13 07:35:46;;;;;;;;;;;;;;;27.14;20.87;97857.91;4976836;28;19918;-87
2023/01/13 07:38:13;;;;;;;;;;;;;;;27.01;21.23;97850.78;4975743;28;19964;-87
2023/01/13 07:40:39;;;;;;;;;;;;;;;27.29;20.99;97855.34;4975344;28;19918;-87
2023/01/13 07:45:54;;;;;;;;;;;;;;;27.94;20.43;97861.63;4974898;28;19929;-86
2023/01/13 07:48:20;;;;;;;;;;;;;;;28.04;20.30;97865.28;4974497;28;20389;-86
2023/01/13 07:50:46;;;;;;;;;;;;;;;27.65;20.37;97864.03;4974863;28;19957;-85
2023/01/13 07:53:12;;;;;;;;;;;;;;;27.81;21.20;97863.78;4974990;28;19918;-87
2023/01/13 07:55:42;;;;;;;;;;;;;;;27.80;20.96;97865.00;4975269;28;19926;-87
2023/01/13 07:58:08;;;;;;;;;;;;;;;27.74;21.06;97864.06;4985073;28;19918;-87
2023/01/13 08:00:35;;;;;;;;;;;;;;;27.89;20.87;97870.69;4994490;28;19917;-86
2023/01/13 08:03:01;;;;;;;;;;;;;;;27.98;20.65;97867.91;4996283;28;20348;-86
2023/01/13 08:05:27;;;;;;;;;;;;;;;28.10;20.55;97863.41;4997747;28;20333;-86
2023/01/13 08:07:53;;;;;;;;;;;;;;;28.31;20.48;97858.94;4997651;28;19972;-86
2023/01/13 08:10:19;;;;;;;;;;;;;;;28.21;20.50;97863.78;4997385;28;19926;-86
2023/01/13 08:15:33;;;;;;;;;;;;;;;28.42;21.02;97845.91;4991547;28;19969;-86
2023/01/13 08:17:59;;;;;;;;;;;;;;;28.47;20.12;97852.97;4997453;28;19926;-86
2023/01/13 08:20:26;;;;;;;;;;;;;;;27.80;21.41;97850.13;4980602;28;19981;-86
2023/01/13 08:22:56;;;;;;;;;;;;;;;27.43;22.32;97843.53;4977820;28;19922;-86
2023/01/13 08:25:22;;;;;;;;;;;;;;;27.20;22.04;97844.00;4978310;28;19918;-85
2023/01/13 08:27:49;;;;;;;;;;;;;;;27.07;22.18;97846.91;4976292;28;20362;-86
2023/01/13 08:30:15;;;;;;;;;;;;;;;26.89;22.78;97849.59;4978317;28;19922;-86
2023/01/13 08:32:48;;;;;;;;;;;;;;;27.25;21.97;97852.69;4978068;28;19918;-86
2023/01/13 08:35:14;;;;;;;;;;;;;;;27.48;22.15;97856.25;4984068;28;19957;-86
2023/01/13 08:37:40;;;;;;;;;;;;;;;27.52;21.85;97846.41;4997123;28;19993;-86
2023/01/13 08:40:07;;;;;;;;;;;;;;;27.77;21.48;97854.66;4996975;28;20298;-86
2023/01/13 08:42:33;;;;;;;;;;;;;;;27.75;21.87;97854.34;4996325;28;19925;-87
2023/01/13 08:44:59;;;;;;;;;;;;;;;28.05;21.90;97853.53;4996588;28;19926;-87
2023/01/13 08:47:28;;;;;;;;;;;;;;;28.43;21.16;97852.31;4991374;28;19922;-86
2023/01/13 08:49:54;;;;;;;;;;;;;;;28.58;21.25;97850.47;4994370;28;19917;-87
2023/01/13 08:52:20;;;;;;;;;;;;;;;28.78;21.71;97853.63;4997037;28;19914;-87
2023/01/13 08:54:46;;;;;;;;;;;;;;;28.80;20.54;97856.00;4996831;28;19918;-86
2023/01/13 08:57:14;;;;;;;;;;;;;;;28.70;20.87;97858.84;4973595;28;19956;-87
2023/01/13 08:59:42;;;;;;;;;;;;;;;28.89;20.92;97867.28;4984589;28;19997;-87
2023/01/13 09:02:12;;;;;;;;;;;;;;;29.07;20.89;97858.78;5016584;28;19918;-86
2023/01/13 09:04:38;;;;;;;;;;;;;;;29.11;21.15;97853.75;4988130;28;19921;-86
2023/01/13 09:07:04;;;;;;;;;;;;;;;29.12;21.53;97850.47;4978522;28;20001;-86
2023/01/13 09:09:30;;;;;;;;;;;;;;;29.45;21.11;97847.75;4975831;28;19918;-86
2023/01/13 09:14:40;;;;;;;;;;;;;;;29.53;21.15;97846.13;4975739;28;19933;-86
2023/01/13 09:17:07;;;;;;;;;;;;;;;29.47;20.90;97848.06;4976769;28;19961;-87
2023/01/13 09:19:33;;;;;;;;;;;;;;;29.34;20.64;97844.63;4975762;28;19918;-86
2023/01/13 09:21:59;;;;;;;;;;;;;;;29.24;20.99;97845.91;4990922;28;19917;-87
2023/01/13 09:24:25;;;;;;;;;;;;;;;29.64;21.10;97854.88;4987153;28;20444;-87
2023/01/13 09:26:51;;;;;;;;;;;;;;;29.46;21.23;97840.03;4995601;28;19918;-87
2023/01/13 09:29:17;;;;;;;;;;;;;;;29.70;20.72;97832.38;4996146;28;19973;-87
2023/01/13 09:31:43;;;;;;;;;;;;;;;30.01;21.30;97833.66;4995718;28;20393;-86
2023/01/13 09:36:57;;;;;;;;;;;;;;;30.17;20.64;97818.31;4995469;28;19933;-86
2023/01/13 09:39:23;;;;;;;;;;;;;;;29.63;20.82;97810.09;4977907;28;19918;-86
2023/01/13 09:44:43;;;;;;;;;;;;;;;29.65;21.18;97807.56;4989300;28;20389;-86
2023/01/13 09:47:29;;;;;;;;;;;;;;;29.17;21.35;97813.03;4975071;28;19918;-86
2023/01/13 09:50:02;;;;;;;;;;;;;;;29.04;21.70;97803.19;4975746;28;19922;-86
2023/01/13 09:52:28;;;;;;;;;;;;;;;28.46;22.44;97812.66;4976125;28;19918;-86
2023/01/13 09:54:57;;;;;;;;;;;;;;;28.63;22.01;97804.69;4979475;28;19922;-86
2023/01/13 09:57:23;;;;;;;;;;;;;;;29.52;21.69;97801.34;4989037;28;19929;-86
2023/01/13 09:59:49;;;;;;;;;;;;;;;29.45;21.56;97798.88;4986205;28;19922;-86
2023/01/13 10:02:24;;;;;;;;;;;;;;;29.51;21.12;97796.94;4978051;28;19930;-86
2023/01/13 10:05:11;;;;;;;;;;;;;;;29.65;21.28;97794.22;4994394;28;19926;-86
2023/01/13 10:07:40;;;;;;;;;;;;;;;29.12;20.69;97793.91;4993637;28;20009;-86
2023/01/13 10:10:11;;;;;;;;;;;;;;;29.08;20.96;97795.34;4993141;28;19922;-86
2023/01/13 10:15:24;;;;;;;;;;;;;;;29.26;20.63;97798.16;4990757;28;20357;-85
2023/01/13 10:17:50;;;;;;;;;;;;;;;28.98;21.23;97791.75;4989034;28;20009;-83
2023/01/13 10:20:19;;;;;;;;;;;;;;;29.18;21.15;97796.91;4993743;28;19922;-83
2023/01/13 10:22:45;;;;;;;;;;;;;;;29.25;20.40;97805.06;4975045;28;19962;-83
2023/01/13 10:25:16;;;;;;;;;;;;;;;29.26;20.51;97798.16;4982033;28;20331;-84
2023/01/13 10:27:48;;;;;;;;;;;;;;;29.46;20.73;97783.44;4993886;28;19922;-83
2023/01/13 10:30:30;;;;;;;;;;;;;;;29.72;20.06;97785.38;4981235;28;20438;-84
2023/01/13 10:32:57;;;;;;;;;;;;;;;29.91;19.94;97786.09;4985139;28;20408;-86
2023/01/13 10:35:42;;;;;;;;;;;;;;;29.29;22.13;97783.81;4992457;28;19922;-85
2023/01/13 10:38:14;;;;;;;;;;;;;;;29.08;21.26;97772.72;4992898;28;19930;-85
2023/01/13 10:40:54;;;;;;;;;;;;;;;29.05;20.96;97777.28;4988552;28;20408;-84
2023/01/13 10:43:20;;;;;;;;;;;;;;;29.71;20.38;97771.72;4993526;28;19961;-85
2023/01/13 10:45:51;;;;;;;;;;;;;;;29.98;21.29;97769.53;4987336;28;19926;-85
2023/01/13 10:48:17;;;;;;;;;;;;;;;29.96;20.48;97766.41;4993490;28;19925;-85
2023/01/13 10:50:47;;;;;;;;;;;;;;;29.33;21.68;97769.53;4993952;28;19922;-85
2023/01/13 10:53:23;;;;;;;;;;;;;;;29.33;20.37;97759.00;4974777;28;20301;-85
2023/01/13 10:56:02;;;;;;;;;;;;;;;29.77;20.01;97755.66;4976792;28;19936;-85
2023/01/13 10:58:28;;;;;;;;;;;;;;;29.87;20.43;97754.34;4993974;28;20373;-86
2023/01/13 11:01:03;;;;;;;;;;;;;;;29.93;20.66;97747.53;4991542;28;19929;-85
2023/01/13 11:03:39;;;;;;;;;;;;;;;29.54;20.53;97742.25;4993759;28;19925;-85
2023/01/13 11:06:06;;;;;;;;;;;;;;;28.52;23.29;97740.13;4979244;28;19926;-84
2023/01/13 11:08:45;;;;;;;;;;;;;;;28.42;21.13;97741.41;4991315;28;19921;-85
2023/01/13 11:11:25;;;;;;;;;;;;;;;28.54;21.43;97743.25;4983910;28;19933;-84
2023/01/13 11:16:39;;;;;;;;;;;;;;;28.02;21.84;97746.44;4993177;28;19945;-86
2023/01/13 11:19:12;;;;;;;;;;;;;;;28.44;21.38;97738.91;4992711;28;20321;-86
2023/01/13 11:22:17;;;;;;;;;;;;;;;28.77;21.27;97729.78;4980447;28;19922;-85
2023/01/13 11:24:46;;;;;;;;;;;;;;;29.48;20.80;97735.69;4972658;28;19968;-85
2023/01/13 11:27:30;;;;;;;;;;;;;;;29.92;19.95;97731.81;4990305;28;20309;-84
2023/01/13 11:30:15;;;;;;;;;;;;;;;30.11;20.42;97737.34;4992343;28;20109;-85
2023/01/13 11:33:00;;;;;;;;;;;;;;;30.44;19.85;97727.50;4982534;28;19925;-85
2023/01/13 11:35:28;;;;;;;;;;;;;;;30.78;19.86;97724.00;4992634;28;20412;-84
2023/01/13 11:38:00;;;;;;;;;;;;;;;30.42;20.44;97729.25;4979694;28;19918;-84
2023/01/13 11:40:31;;;;;;;;;;;;;;;30.11;19.65;97715.47;4983641;28;20004;-84
2023/01/13 11:43:00;;;;;;;;;;;;;;;30.18;19.60;97720.75;4997904;28;19922;-84
2023/01/13 11:45:32;;;;;;;;;;;;;;;30.07;20.03;97720.53;4996625;28;19968;-85
2023/01/13 11:47:59;;;;;;;;;;;;;;;29.50;19.91;97725.44;4983600;28;20383;-85
2023/01/13 11:50:43;;;;;;;;;;;;;;;29.25;22.26;97723.81;4992580;28;19984;-84
2023/01/13 11:53:18;;;;;;;;;;;;;;;28.95;21.17;97716.38;4995649;28;19926;-84
2023/01/13 11:56:03;;;;;;;;;;;;;;;29.91;21.03;97713.28;4989030;28;19973;-84
2023/01/13 11:58:35;;;;;;;;;;;;;;;29.71;20.73;97715.88;4987339;28;20398;-84
2023/01/13 12:01:01;;;;;;;;;;;;;;;28.75;21.55;97713.31;4996460;28;19964;-85
2023/01/13 12:03:46;;;;;;;;;;;;;;;29.57;20.52;97708.09;4996613;28;20279;-85
2023/01/13 12:06:23;;;;;;;;;;;;;;;29.51;20.16;97707.19;4995823;28;20020;-84
2023/01/13 12:09:10;;;;;;;;;;;;;;;29.51;22.50;97703.59;4994402;28;19972;-84
2023/01/13 12:14:50;;;;;;;;;;;;;;;29.70;20.03;97705.03;4981794;28;20345;-84
2023/01/13 12:17:39;;;;;;;;;;;;;;;29.09;20.85;97709.25;4996166;28;19957;-85
2023/01/13 12:20:28;;;;;;;;;;;;;;;29.67;19.98;97706.78;4994154;28;19925;-85
2023/01/13 12:22:56;;;;;;;;;;;;;;;29.34;20.77;97700.38;4986394;28;19918;-84
2023/01/13 12:25:25;;;;;;;;;;;;;;;29.10;22.29;97710.84;4995090;28;20378;-84
2023/01/13 12:28:03;;;;;;;;;;;;;;;29.29;20.51;97710.28;4995189;28;19984;-84
2023/01/13 12:30:35;;;;;;;;;;;;;;;29.88;20.44;97710.59;4994853;28;20004;-85
2023/01/13 12:33:34;;;;;;;;;;;;;;;30.29;20.30;97704.00;4994745;28;19944;-84
2023/01/13 12:36:05;;;;;;;;;;;;;;;30.50;20.03;97696.44;4962893;28;19921;-85
2023/01/13 12:38:48;;;;;;;;;;;;;;;30.60;19.81;97700.72;4996856;28;20374;-84
2023/01/13 12:41:22;;;;;;;;;;;;;;;30.26;19.66;97701.34;4995838;28;19957;-84
2023/01/13 12:46:34;;;;;;;;;;;;;;;29.19;20.32;97705.16;4982482;28;20364;-83
2023/01/13 12:49:00;;;;;;;;;;;;;;;28.57;21.06;97705.59;4996124;28;20024;-83
2023/01/13 12:51:34;;;;;;;;;;;;;;;28.87;20.81;97698.19;4995995;28;19960;-84
2023/01/13 12:54:01;;;;;;;;;;;;;;;29.27;20.41;97701.50;4995109;28;20392;-83
2023/01/13 12:56:29;;;;;;;;;;;;;;;29.47;20.27;97700.16;4995134;28;19914;-84
2023/01/13 12:59:14;;;;;;;;;;;;;;;29.01;20.78;97703.16;4979176;28;19969;-83
2023/01/13 13:01:41;;;;;;;;;;;;;;;28.88;21.01;97710.28;4986798;28;19917;-84
2023/01/13 13:04:11;;;;;;;;;;;;;;;28.50;21.12;97702.31;4990302;28;19924;-83
2023/01/13 13:06:39;;;;;;;;;;;;;;;29.05;20.29;97700.16;4976898;28;19929;-84
2023/01/13 13:09:22;;;;;;;;;;;;;;;28.78;22.18;97698.19;4986917;28;19921;-83
2023/01/13 13:14:38;;;;;;;;;;;;;;;28.25;22.33;97691.38;4995455;28;19932;-83
2023/01/13 13:17:19;;;;;;;;;;;;;;;27.88;21.27;97704.69;4988095;28;20330;-83
2023/01/13 13:19:47;;;;;;;;;;;;;;;27.66;21.09;97701.97;4980787;28;19932;-85
2023/01/13 13:22:17;;;;;;;;;;;;;;;27.42;22.09;97704.59;4978253;28;20635;-84
2023/01/13 13:24:49;;;;;;;;;;;;;;;27.62;21.61;97701.34;4990082;28;19922;-83
2023/01/13 13:27:21;;;;;;;;;;;;;;;28.26;20.81;97698.59;4988204;28;19926;-84
2023/01/13 13:30:08;;;;;;;;;;;;;;;28.14;21.11;97699.53;4993852;28;19922;-83
2023/01/13 13:32:37;;;;;;;;;;;;;;;28.91;20.49;97707.28;4980679;28;20436;-84
2023/01/13 13:35:27;;;;;;;;;;;;;;;29.57;20.16;97693.94;4987419;28;20004;-83
2023/01/13 13:46:45;;;;;;;;;;;;;;;27.94;20.71;97711.25;4988855;28;19925;-83
2023/01/13 13:49:12;;;;;;;;;;;;;;;28.78;20.95;97711.56;4984050;28;19965;-84
2023/01/13 13:51:43;;;;;;;;;;;;;;;27.49;22.56;97712.00;4988112;28;20370;-84
2023/01/13 13:54:12;;;;;;;;;;;;;;;27.09;24.15;97717.63;4976441;28;20328;-85
2023/01/13 13:56:41;;;;;;;;;;;;;;;27.15;22.48;97715.75;4985813;28;20374;-84
2023/01/13 13:59:12;;;;;;;;;;;;;;;27.39;20.92;97724.47;4984063;28;19922;-84
2023/01/13 14:01:39;;;;;;;;;;;;;;;27.90;21.05;97721.91;4983998;28;20373;-84
2023/01/13 14:04:09;;;;;;;;;;;;;;;28.48;20.58;97716.13;4988902;28;20434;-85
2023/01/13 14:06:35;;;;;;;;;;;;;;;28.58;20.41;97721.31;4995139;28;19924;-85
2023/01/13 14:09:01;;;;;;;;;;;;;;;28.74;20.02;97725.84;4984027;28;19977;-84
2023/01/13 14:11:33;;;;;;;;;;;;;;;28.74;20.73;97735.13;4988069;28;19977;-84
2023/01/13 14:14:03;;;;;;;;;;;;;;;28.83;21.00;97733.50;4982088;28;19926;-84